Time;durP1;ratioP1;P1;durP2;ratioP2;P2;SDS_P1;SDS_P2;PMS_P1;PMS_P2;Temp;Humidity;BMP_temperature;BMP_pressure;BME280_temperature;BME280_humidity;BME280_pressure;Samples;Min_cycle;Max_cycle;Signal;HPM_P1;HPM_P2
2022/03/17 00:00:29;;;;;;;85.67;35.37;;;;;;;-6.17;82.34;102081.04;1725841;82;21038;-68
2022/03/17 00:02:56;;;;;;;75.97;31.50;;;;;;;-6.18;82.19;102086.57;1725792;82;21250;-68
2022/03/17 00:05:22;;;;;;;79.87;32.23;;;;;;;-6.22;82.10;102088.44;1725712;82;21050;-68
2022/03/17 00:07:51;;;;;;;60.00;25.40;;;;;;;-6.24;82.02;102096.44;1725704;81;21088;-68
2022/03/17 00:10:18;;;;;;;67.27;28.03;;;;;;;-6.28;81.56;102089.37;1725972;82;21037;-67
2022/03/17 00:12:47;;;;;;;71.90;31.63;;;;;;;-6.31;81.59;102096.84;1725671;82;21642;-68
2022/03/17 00:15:15;;;;;;;61.73;24.53;;;;;;;-6.38;81.36;102099.82;1725888;83;21428;-68
2022/03/17 00:17:41;;;;;;;60.73;25.40;;;;;;;-6.43;81.27;102099.53;1725680;83;21112;-67
2022/03/17 00:20:11;;;;;;;75.60;28.60;;;;;;;-6.46;81.30;102102.31;1725926;82;21113;-68
2022/03/17 00:22:39;;;;;;;74.80;30.50;;;;;;;-6.48;81.50;102105.17;1725732;83;22135;-68
2022/03/17 00:25:07;;;;;;;80.40;31.70;;;;;;;-6.50;81.86;102104.19;1720831;83;21048;-68
2022/03/17 00:27:35;;;;;;;73.03;29.97;;;;;;;-6.54;82.16;102103.97;1696808;84;21198;-67
2022/03/17 00:30:01;;;;;;;65.03;27.63;;;;;;;-6.52;82.37;102103.19;1697189;84;21009;-66
2022/03/17 00:32:28;;;;;;;67.70;27.93;;;;;;;-6.52;82.80;102108.32;1696678;83;21096;-68
2022/03/17 00:37:40;;;;;;;67.13;27.17;;;;;;;-6.51;83.44;102104.95;1696828;84;21009;-68
2022/03/17 00:40:09;;;;;;;60.10;26.43;;;;;;;-6.51;83.90;102107.52;1704267;83;21621;-68
2022/03/17 00:42:36;;;;;;;62.13;23.63;;;;;;;-6.50;84.12;102110.19;1726031;83;21538;-69
2022/03/17 00:45:05;;;;;;;58.07;24.33;;;;;;;-6.49;84.37;102107.22;1725631;83;21017;-69
2022/03/17 00:47:31;;;;;;;54.93;23.70;;;;;;;-6.52;84.38;102099.34;1725990;82;21550;-67
2022/03/17 00:49:57;;;;;;;51.47;21.17;;;;;;;-6.49;84.29;102109.78;1722734;82;22273;-68
2022/03/17 00:52:24;;;;;;;48.97;21.27;;;;;;;-6.51;83.99;102116.12;1720259;83;21231;-68
2022/03/17 00:54:52;;;;;;;60.20;24.80;;;;;;;-6.52;83.80;102116.01;1720318;83;21025;-67
2022/03/17 00:57:18;;;;;;;56.43;23.30;;;;;;;-6.57;83.92;102116.59;1720206;83;21520;-66
2022/03/17 00:59:45;;;;;;;56.93;24.27;;;;;;;-6.62;83.65;102114.54;1720273;83;21053;-69
2022/03/17 01:02:11;;;;;;;54.07;24.43;;;;;;;-6.67;83.60;102110.77;1720267;83;21056;-67
2022/03/17 01:04:38;;;;;;;55.33;21.53;;;;;;;-6.71;83.49;102116.11;1720239;83;21197;-67
2022/03/17 01:07:06;;;;;;;53.13;20.23;;;;;;;-6.75;83.59;102114.13;1720144;82;21536;-67
2022/03/17 01:09:36;;;;;;;58.30;21.77;;;;;;;-6.77;83.80;102111.86;1720429;83;21052;-69
2022/03/17 01:12:05;;;;;;;47.57;19.87;;;;;;;-6.80;84.02;102117.67;1720395;83;21022;-68
2022/03/17 01:14:32;;;;;;;52.30;23.17;;;;;;;-6.84;84.24;102109.69;1720674;83;21127;-68
2022/03/17 01:16:59;;;;;;;56.13;24.30;;;;;;;-6.86;84.43;102120.23;1720422;83;21621;-68
2022/03/17 01:19:26;;;;;;;49.10;21.73;;;;;;;-6.90;84.59;102118.24;1720253;83;21589;-68
2022/03/17 01:21:54;;;;;;;45.90;20.77;;;;;;;-6.96;84.61;102118.74;1720345;83;21025;-68
2022/03/17 01:24:20;;;;;;;55.80;22.17;;;;;;;-6.98;84.72;102112.23;1720443;83;21550;-66
2022/03/17 01:26:47;;;;;;;49.23;20.00;;;;;;;-7.02;84.70;102115.38;1720636;83;21512;-67
2022/03/17 01:29:14;;;;;;;48.50;20.23;;;;;;;-7.05;84.77;102113.02;1720489;83;22072;-67
2022/03/17 01:31:43;;;;;;;41.97;17.23;;;;;;;-7.05;84.93;102117.73;1720309;83;21284;-67
2022/03/17 01:34:10;;;;;;;48.13;19.80;;;;;;;-7.08;85.02;102119.23;1720612;83;21069;-69
2022/03/17 01:36:36;;;;;;;41.97;19.77;;;;;;;-7.10;85.27;102118.23;1720339;83;21053;-68
2022/03/17 01:39:03;;;;;;;36.70;16.93;;;;;;;-7.10;85.47;102121.68;1720513;83;21076;-68
2022/03/17 01:41:30;;;;;;;40.97;17.63;;;;;;;-7.07;85.57;102123.55;1720378;83;21245;-67
2022/03/17 01:43:56;;;;;;;38.70;16.87;;;;;;;-7.07;85.45;102121.87;1720531;83;21057;-67
2022/03/17 01:46:23;;;;;;;40.17;16.07;;;;;;;-7.06;85.51;102119.82;1720489;83;21061;-67
2022/03/17 01:48:49;;;;;;;35.20;16.40;;;;;;;-7.04;85.92;102126.30;1721164;83;21020;-67
2022/03/17 01:51:16;;;;;;;39.67;15.60;;;;;;;-6.99;86.71;102122.39;1726202;82;21229;-68
2022/03/17 01:53:43;;;;;;;37.03;15.70;;;;;;;-6.97;86.98;102122.08;1726027;83;21079;-68
2022/03/17 01:56:09;;;;;;;31.10;14.07;;;;;;;-6.94;87.03;102122.70;1725857;83;20990;-69
2022/03/17 01:58:36;;;;;;;32.97;12.70;;;;;;;-6.91;87.17;102129.30;1725837;82;21045;-66
2022/03/17 02:01:04;;;;;;;30.30;13.77;;;;;;;-6.92;87.55;102124.57;1725967;83;21482;-67
2022/03/17 02:03:31;;;;;;;30.07;14.47;;;;;;;-6.87;88.15;102129.59;1725916;83;21108;-68
2022/03/17 02:05:58;;;;;;;31.83;13.77;;;;;;;-6.82;88.30;102133.73;1725900;83;21273;-66
2022/03/17 02:08:27;;;;;;;32.50;13.50;;;;;;;-6.79;88.64;102132.64;1725913;81;21093;-67
2022/03/17 02:13:28;;;;;;;31.87;12.87;;;;;;;-6.66;88.74;102131.37;1698928;82;21010;-69
2022/03/17 02:15:56;;;;;;;29.37;12.47;;;;;;;-6.64;88.22;102145.19;1725892;82;21041;-67
2022/03/17 02:18:24;;;;;;;26.00;11.10;;;;;;;-6.62;87.81;102147.86;1725739;82;22085;-67
2022/03/17 02:20:52;;;;;;;22.67;10.93;;;;;;;-6.65;87.37;102140.83;1725719;83;21013;-68
2022/03/17 02:26:06;;;;;;;25.00;10.77;;;;;;;-6.63;86.65;102148.23;1650890;86;21049;-66
2022/03/17 02:28:34;;;;;;;22.93;11.13;;;;;;;-6.64;85.91;102152.88;1648149;86;21587;-69
2022/03/17 02:31:02;;;;;;;24.83;10.40;;;;;;;-6.66;85.60;102157.01;1668841;83;21166;-66
2022/03/17 02:33:30;;;;;;;23.30;10.83;;;;;;;-6.65;85.23;102154.05;1718228;83;21073;-66
2022/03/17 02:35:57;;;;;;;19.63;9.50;;;;;;;-6.68;84.83;102154.73;1718366;83;21021;-68
2022/03/17 02:38:24;;;;;;;21.17;9.50;;;;;;;-6.72;84.61;102150.19;1718512;83;21045;-68
2022/03/17 02:40:52;;;;;;;19.10;9.20;;;;;;;-6.74;84.39;102151.77;1718517;83;21069;-69
2022/03/17 02:43:19;;;;;;;21.43;10.80;;;;;;;-6.74;84.05;102151.77;1718310;83;21211;-68
2022/03/17 02:45:47;;;;;;;24.03;10.40;;;;;;;-6.79;83.80;102147.62;1718234;83;21153;-67
2022/03/17 02:48:15;;;;;;;19.10;9.63;;;;;;;-6.81;83.59;102145.75;1718522;83;21049;-68
2022/03/17 02:50:42;;;;;;;17.63;8.73;;;;;;;-6.83;83.40;102151.16;1718046;83;21014;-67
2022/03/17 02:53:10;;;;;;;20.97;9.37;;;;;;;-6.86;83.03;102148.41;1718076;83;21093;-67
2022/03/17 02:55:41;;;;;;;20.80;10.27;;;;;;;-6.89;82.93;102149.50;1717963;83;21199;-67
2022/03/17 02:58:09;;;;;;;20.80;9.70;;;;;;;-6.93;82.79;102147.52;1718316;83;21045;-67
2022/03/17 03:00:36;;;;;;;20.73;10.00;;;;;;;-6.96;82.80;102145.64;1718115;83;21628;-67
2022/03/17 03:03:03;;;;;;;19.10;8.80;;;;;;;-7.00;82.74;102150.94;1718108;83;21591;-68
2022/03/17 03:05:29;;;;;;;23.17;10.97;;;;;;;-7.03;82.38;102160.99;1718058;83;21498;-68
2022/03/17 03:07:56;;;;;;;19.90;10.27;;;;;;;-7.06;82.25;102163.73;1718093;82;22243;-67
2022/03/17 03:10:23;;;;;;;23.83;10.00;;;;;;;-7.09;82.17;102164.41;1718263;83;21565;-67
2022/03/17 03:12:51;;;;;;;23.43;10.00;;;;;;;-7.04;81.80;102162.16;1718011;83;21022;-66
2022/03/17 03:15:18;;;;;;;22.57;10.33;;;;;;;-7.04;81.43;102167.28;1718084;83;21049;-67
2022/03/17 03:17:45;;;;;;;18.93;9.53;;;;;;;-7.07;81.23;102172.21;1717966;83;21143;-68
2022/03/17 03:20:12;;;;;;;23.37;10.20;;;;;;;-7.12;81.32;102169.34;1718060;83;21231;-67
2022/03/17 03:22:40;;;;;;;19.60;10.10;;;;;;;-7.17;81.38;102170.72;1718029;83;21601;-68
2022/03/17 03:25:09;;;;;;;22.33;10.90;;;;;;;-7.20;81.24;102167.92;1718310;83;21584;-67
2022/03/17 03:27:39;;;;;;;21.87;10.28;;;;;;;-7.22;81.04;102169.13;1718114;83;28567;-66
2022/03/17 03:30:11;;;;;;;18.87;9.23;;;;;;;-7.23;80.88;102174.12;1709721;83;21072;-66
2022/03/17 03:32:42;;;;;;;26.17;10.13;;;;;;;-7.25;80.70;102180.81;1706895;83;21073;-67
2022/03/17 03:37:54;;;;;;;17.90;8.57;;;;;;;-7.27;80.17;102177.26;1707153;84;21034;-69
2022/03/17 03:40:21;;;;;;;19.27;9.50;;;;;;;-7.30;79.87;102185.63;1707562;84;21053;-68
2022/03/17 03:42:49;;;;;;;21.53;9.93;;;;;;;-7.32;79.60;102187.59;1707155;84;21084;-68
2022/03/17 03:45:16;;;;;;;18.70;9.50;;;;;;;-7.32;79.44;102187.59;1707097;83;21236;-66
2022/03/17 03:47:42;;;;;;;21.97;9.30;;;;;;;-7.31;79.36;102194.10;1706755;84;21073;-67
2022/03/17 03:50:12;;;;;;;18.73;9.90;;;;;;;-7.30;79.24;102199.70;1710874;83;21053;-67
2022/03/17 03:52:40;;;;;;;19.07;10.25;;;;;;;-7.26;79.19;102203.37;1713014;83;21101;-67
2022/03/17 03:55:08;;;;;;;26.07;11.73;;;;;;;-7.25;78.88;102206.02;1712952;82;21066;-67
2022/03/17 03:57:37;;;;;;;26.30;12.18;;;;;;;-7.23;78.70;102208.70;1713202;83;21277;-69
2022/03/17 04:00:50;;;;;;;29.03;13.57;;;;;;;-7.22;78.56;102208.81;1712868;82;21046;-67
2022/03/17 04:02:36;;;;;;;30.03;12.97;;;;;;;-7.18;78.37;102209.89;1689580;83;21026;-68
2022/03/17 04:05:03;;;;;;;30.73;12.07;;;;;;;-7.13;77.99;102216.23;1712925;82;21089;-67
2022/03/17 04:07:30;;;;;;;26.87;11.83;;;;;;;-7.08;77.76;102216.15;1712938;82;21659;-67
2022/03/17 04:09:57;;;;;;;28.50;12.33;;;;;;;-7.06;77.25;102219.70;1713072;83;21143;-68
2022/03/17 04:12:24;;;;;;;22.03;11.23;;;;;;;-7.00;76.69;102223.94;1712900;83;21014;-68
2022/03/17 04:14:50;;;;;;;25.10;11.93;;;;;;;-6.92;76.36;102231.25;1713028;82;21049;-68
2022/03/17 04:17:17;;;;;;;24.87;11.97;;;;;;;-6.91;75.60;102230.48;1712871;82;21124;-67
2022/03/17 04:19:44;;;;;;;25.13;11.27;;;;;;;-6.91;75.64;102224.08;1712841;83;21108;-67
2022/03/17 04:22:11;;;;;;;24.97;11.87;;;;;;;-6.86;75.41;102232.95;1712984;82;21294;-69
2022/03/17 04:24:38;;;;;;;26.37;11.90;;;;;;;-6.87;75.11;102229.91;1712905;82;21054;-68
2022/03/17 04:27:06;;;;;;;26.83;11.70;;;;;;;-6.87;74.96;102237.19;1713062;82;21471;-67
2022/03/17 04:29:33;;;;;;;25.53;11.63;;;;;;;-6.79;74.25;102232.17;1717962;82;21494;-66
2022/03/17 04:31:59;;;;;;;30.37;11.27;;;;;;;-6.76;73.02;102236.24;1725956;82;21526;-68
2022/03/17 04:34:27;;;;;;;26.17;11.67;;;;;;;-6.68;72.62;102244.83;1725875;82;21279;-68
2022/03/17 04:36:54;;;;;;;24.50;12.27;;;;;;;-6.61;72.37;102245.73;1725927;83;21120;-68
2022/03/17 04:39:20;;;;;;;23.43;11.47;;;;;;;-6.34;71.42;102248.83;1726061;83;21029;-67
2022/03/17 04:41:48;;;;;;;24.37;10.60;;;;;;;-5.86;70.13;102244.16;1725825;83;21033;-68
2022/03/17 04:44:15;;;;;;;27.80;11.30;;;;;;;-5.35;69.13;102245.62;1726100;83;21521;-69
2022/03/17 04:46:42;;;;;;;22.47;10.50;;;;;;;-4.77;67.13;102249.94;1725967;82;21306;-69
2022/03/17 04:49:09;;;;;;;23.30;10.77;;;;;;;-4.57;64.32;102254.56;1724517;82;21100;-69
2022/03/17 04:51:37;;;;;;;23.75;11.30;;;;;;;-4.65;63.51;102253.22;1720513;83;21073;-68
2022/03/17 04:54:05;;;;;;;24.02;11.50;;;;;;;-4.77;63.20;102260.22;1720577;83;21064;-67
2022/03/17 04:56:33;;;;;;;25.93;11.60;;;;;;;-4.85;64.37;102255.52;1720436;82;21571;-68
2022/03/17 04:59:00;;;;;;;23.40;11.48;;;;;;;-4.78;63.63;102270.02;1720656;83;21114;-67
2022/03/17 05:01:26;;;;;;;24.43;11.50;;;;;;;-4.60;63.75;102267.25;1706616;83;21100;-68
2022/03/17 05:03:53;;;;;;;24.13;10.67;;;;;;;-4.18;61.42;102270.53;1697168;84;21112;-67
2022/03/17 05:06:20;;;;;;;20.77;9.98;;;;;;;-3.53;61.15;102266.40;1696941;83;21077;-68
2022/03/17 05:08:47;;;;;;;18.42;9.45;;;;;;;-2.88;59.30;102266.42;1696992;84;21053;-69
2022/03/17 05:11:13;;;;;;;21.45;10.50;;;;;;;-2.26;56.35;102268.25;1697115;84;21219;-67
2022/03/17 05:13:42;;;;;;;20.82;9.00;;;;;;;-1.79;55.74;102267.98;1696845;84;20998;-67
2022/03/17 05:16:09;;;;;;;18.75;10.00;;;;;;;-1.21;53.84;102263.33;1697163;84;21509;-69
2022/03/17 05:18:37;;;;;;;16.50;8.78;;;;;;;-0.69;51.18;102268.23;1696894;84;21136;-69
2022/03/17 05:21:05;;;;;;;22.85;9.25;;;;;;;-0.30;49.53;102272.03;1697056;84;21081;-68
2022/03/17 05:23:32;;;;;;;22.93;9.60;;;;;;;0.07;47.75;102263.56;1696837;84;21192;-68
2022/03/17 05:25:59;;;;;;;19.05;9.23;;;;;;;0.44;47.40;102272.40;1696581;84;21604;-69
2022/03/17 05:28:27;;;;;;;16.87;9.00;;;;;;;0.75;46.26;102277.44;1696757;84;21060;-68
2022/03/17 05:30:53;;;;;;;14.35;8.20;;;;;;;1.10;45.97;102280.45;1686835;84;21120;-68
2022/03/17 05:33:21;;;;;;;16.87;9.03;;;;;;;1.53;45.07;102274.19;1684269;85;21125;-68
2022/03/17 05:35:48;;;;;;;14.03;8.70;;;;;;;1.82;43.29;102280.38;1684347;85;21214;-69
2022/03/17 05:38:14;;;;;;;16.12;9.05;;;;;;;2.07;41.88;102279.04;1684239;84;21129;-69
2022/03/17 05:40:41;;;;;;;15.95;8.70;;;;;;;2.38;41.94;102284.32;1684366;84;21085;-68
2022/03/17 05:43:09;;;;;;;16.82;8.93;;;;;;;2.67;40.66;102282.19;1684277;85;21097;-67
2022/03/17 05:45:39;;;;;;;15.53;8.15;;;;;;;2.86;39.56;102280.13;1684288;84;21548;-68
2022/03/17 05:48:06;;;;;;;13.22;8.45;;;;;;;3.15;39.36;102281.84;1684262;85;21263;-68
2022/03/17 05:50:37;;;;;;;14.38;8.10;;;;;;;3.37;37.10;102272.00;1703332;84;21514;-68
2022/03/17 05:53:07;;;;;;;15.50;8.78;;;;;;;3.56;37.71;102288.99;1707487;83;21359;-67
2022/03/17 05:55:35;;;;;;;13.00;8.33;;;;;;;3.78;37.60;102289.14;1707314;84;21625;-68
2022/03/17 05:58:01;;;;;;;14.43;7.58;;;;;;;4.05;35.54;102295.47;1707206;83;21041;-69
2022/03/17 06:00:29;;;;;;;12.78;7.97;;;;;;;4.11;34.62;102294.73;1702817;83;21236;-68
2022/03/17 06:02:58;;;;;;;13.93;7.95;;;;;;;4.15;35.82;102296.57;1684416;84;21074;-68
2022/03/17 06:05:26;;;;;;;12.85;8.13;;;;;;;4.40;34.98;102297.60;1685744;85;21054;-68
2022/03/17 06:07:55;;;;;;;12.80;6.92;;;;;;;4.78;34.17;102296.25;1688997;82;20991;-68
2022/03/17 06:10:33;;;;;;;15.83;8.53;;;;;;;4.94;32.45;102297.46;1688395;85;21515;-67
2022/03/17 06:13:02;;;;;;;16.90;9.60;;;;;;;4.97;31.70;102304.47;1687112;83;21431;-69
2022/03/17 06:15:33;;;;;;;16.90;8.43;;;;;;;4.93;32.40;102307.89;1685273;84;21097;-69
2022/03/17 06:18:03;;;;;;;16.27;8.63;;;;;;;5.08;31.52;102307.31;1684982;84;21026;-67
2022/03/17 06:20:33;;;;;;;19.48;8.78;;;;;;;5.07;31.62;102309.05;1685160;85;21100;-67
2022/03/17 06:23:03;;;;;;;17.52;8.55;;;;;;;5.21;31.38;102304.98;1685081;84;21061;-69
2022/03/17 06:25:32;;;;;;;14.70;7.90;;;;;;;5.35;31.44;102304.37;1684349;85;21249;-69
2022/03/17 06:27:59;;;;;;;14.18;7.95;;;;;;;5.65;31.09;102309.30;1684571;85;21042;-69
2022/03/17 06:30:31;;;;;;;10.98;7.47;;;;;;;5.87;31.11;102307.95;1690500;84;21099;-69
2022/03/17 06:32:57;;;;;;;14.40;8.00;;;;;;;5.87;29.97;102296.18;1696864;84;21173;-68
2022/03/17 06:35:26;;;;;;;11.60;7.12;;;;;;;6.06;30.75;102296.96;1696955;84;21089;-70
2022/03/17 06:37:58;;;;;;;13.28;7.42;;;;;;;6.25;30.22;102302.05;1696960;84;21524;-68
2022/03/17 06:40:25;;;;;;;10.50;5.92;;;;;;;6.51;30.11;102303.77;1697076;84;21064;-67
2022/03/17 06:42:55;;;;;;;12.73;6.92;;;;;;;6.93;28.79;102314.81;1697167;84;21494;-68
2022/03/17 06:45:23;;;;;;;10.82;5.87;;;;;;;6.98;27.09;102304.39;1696940;84;21084;-68
2022/03/17 06:47:50;;;;;;;9.48;5.25;;;;;;;6.67;26.34;102306.58;1697141;84;21081;-67
2022/03/17 06:50:18;;;;;;;15.75;5.85;;;;;;;6.38;26.37;102313.59;1713853;83;21221;-68
2022/03/17 06:52:45;;;;;;;10.28;5.90;;;;;;;6.37;26.81;102307.89;1720555;83;21060;-69
2022/03/17 06:55:12;;;;;;;9.88;5.83;;;;;;;6.49;26.75;102313.34;1720505;83;21064;-70
2022/03/17 06:57:41;;;;;;;8.08;4.55;;;;;;;6.49;26.32;102312.02;1720244;83;21072;-68
2022/03/17 07:00:12;;;;;;;11.00;5.17;;;;;;;6.61;27.02;102315.69;1694029;83;21208;-68
2022/03/17 07:02:39;;;;;;;9.95;5.17;;;;;;;6.72;26.33;102314.09;1694428;83;21576;-67
2022/03/17 07:05:07;;;;;;;8.90;5.37;;;;;;;6.61;25.62;102307.83;1720269;83;21544;-67
2022/03/17 07:07:36;;;;;;;8.18;5.10;;;;;;;6.70;26.73;102304.91;1720290;82;21119;-68
2022/03/17 07:10:06;;;;;;;8.55;5.95;;;;;;;7.11;26.66;102318.09;1720638;83;21100;-68
2022/03/17 07:12:37;;;;;;;18.90;6.15;;;;;;;7.26;25.42;102314.33;1720395;83;21482;-67
2022/03/17 07:15:06;;;;;;;10.85;5.20;;;;;;;7.01;24.77;102312.27;1720826;83;21668;-68
2022/03/17 07:17:39;;;;;;;9.23;5.17;;;;;;;6.94;24.83;102313.50;1720111;83;21119;-69
2022/03/17 07:20:14;;;;;;;15.03;5.15;;;;;;;7.04;25.96;102314.92;1720293;83;21072;-69
2022/03/17 07:22:43;;;;;;;13.30;6.00;;;;;;;7.13;25.26;102312.02;1720496;83;21080;-68
2022/03/17 07:25:12;;;;;;;12.82;6.72;;;;;;;6.89;24.90;102315.63;1720827;83;21021;-68
2022/03/17 07:27:40;;;;;;;11.20;5.22;;;;;;;6.79;24.92;102317.25;1720325;83;21231;-69
2022/03/17 07:30:11;;;;;;;7.75;4.53;;;;;;;6.85;25.34;102319.05;1720260;83;21105;-69
2022/03/17 07:32:38;;;;;;;10.70;4.40;;;;;;;6.84;25.71;102308.14;1720042;82;21135;-68
2022/03/17 07:35:08;;;;;;;7.42;4.85;;;;;;;6.96;25.11;102312.22;1720392;83;21827;-68
2022/03/17 07:37:36;;;;;;;9.20;4.95;;;;;;;7.19;25.62;102307.27;1720488;83;21104;-69
2022/03/17 07:40:05;;;;;;;9.63;4.97;;;;;;;7.52;25.03;102314.64;1720484;83;21214;-69
2022/03/17 07:42:32;;;;;;;10.93;4.60;;;;;;;7.63;24.51;102314.72;1720519;83;21080;-68
2022/03/17 07:45:17;;;;;;;9.95;4.83;;;;;;;7.78;24.04;102316.64;1720554;83;21560;-69
2022/03/17 07:48:05;;;;;;;8.35;5.25;;;;;;;7.58;24.15;102318.17;1720461;82;21010;-68
2022/03/17 07:50:33;;;;;;;8.25;5.17;;;;;;;7.48;23.88;102317.21;1706960;83;21104;-70
2022/03/17 07:53:00;;;;;;;8.73;5.03;;;;;;;7.29;23.98;102318.72;1725781;82;21178;-67
2022/03/17 07:55:27;;;;;;;9.48;5.08;;;;;;;7.36;24.12;102320.55;1725920;83;21320;-69
2022/03/17 07:57:55;;;;;;;8.98;5.00;;;;;;;7.48;24.50;102317.21;1725812;82;21080;-68
2022/03/17 08:00:22;;;;;;;11.20;4.97;;;;;;;7.57;24.70;102314.69;1726165;83;21014;-68
2022/03/17 08:02:50;;;;;;;8.08;5.40;;;;;;;7.70;24.42;102318.29;1725903;82;22132;-68
2022/03/17 08:05:17;;;;;;;14.15;6.55;;;;;;;7.70;24.40;102316.98;1725992;82;21099;-69
2022/03/17 08:07:44;;;;;;;11.68;6.50;;;;;;;7.67;25.00;102315.65;1725752;81;21049;-68
2022/03/17 08:10:11;;;;;;;12.20;6.00;;;;;;;7.52;25.35;102318.98;1726072;83;21053;-69
2022/03/17 08:12:39;;;;;;;9.13;5.42;;;;;;;7.67;25.42;102313.02;1725882;82;21030;-69
2022/03/17 08:15:07;;;;;;;10.20;5.67;;;;;;;8.11;24.42;102309.92;1726051;83;21025;-68
2022/03/17 08:17:35;;;;;;;9.10;5.00;;;;;;;8.26;23.79;102307.83;1725717;82;21065;-68
2022/03/17 08:20:05;;;;;;;11.80;5.10;;;;;;;7.62;23.40;102318.23;1725690;83;21034;-68
2022/03/17 08:22:34;;;;;;;11.43;5.30;;;;;;;6.96;24.24;102313.97;1726085;82;21033;-68
2022/03/17 08:25:03;;;;;;;8.85;5.55;;;;;;;6.42;25.38;102316.72;1725880;82;21009;-68
2022/03/17 08:27:31;;;;;;;9.05;4.90;;;;;;;6.46;25.71;102315.02;1726069;83;21112;-68
2022/03/17 08:29:58;;;;;;;10.60;5.60;;;;;;;7.05;26.16;102312.77;1725721;82;21258;-69
2022/03/17 08:32:24;;;;;;;9.65;5.95;;;;;;;7.67;25.53;102302.09;1726000;82;21029;-68
2022/03/17 08:34:51;;;;;;;8.73;5.72;;;;;;;8.14;24.56;102305.99;1725954;82;21096;-69
2022/03/17 08:37:18;;;;;;;9.33;5.45;;;;;;;8.20;24.05;102302.98;1725962;83;21585;-69
2022/03/17 08:39:48;;;;;;;9.30;5.50;;;;;;;7.90;24.48;102301.00;1725865;83;21506;-69
2022/03/17 08:50:55;;;;;;;8.85;5.78;;;;;;;6.17;24.68;102321.13;1787677;80;21011;-69
2022/03/17 08:53:22;;;;;;;11.40;6.12;;;;;;;5.09;26.19;102321.72;1787526;80;20949;-68
2022/03/17 08:55:50;;;;;;;10.38;5.87;;;;;;;4.64;27.21;102318.56;1787617;80;20961;-68
2022/03/17 08:58:17;;;;;;;9.95;5.75;;;;;;;4.34;28.02;102324.84;1787634;80;20972;-68
2022/03/17 09:00:44;;;;;;;11.22;6.17;;;;;;;4.16;28.49;102308.75;1778657;80;21095;-69
2022/03/17 09:03:11;;;;;;;11.78;6.25;;;;;;;3.88;28.82;102318.49;1756486;81;21309;-68
2022/03/17 09:05:38;;;;;;;10.38;5.80;;;;;;;3.72;28.92;102322.86;1756425;81;20972;-68
2022/03/17 09:08:06;;;;;;;12.03;6.53;;;;;;;3.89;29.00;102330.70;1756478;81;21044;-69
2022/03/17 09:10:38;;;;;;;14.15;6.37;;;;;;;3.98;28.34;102329.63;1756407;81;21047;-68
2022/03/17 09:13:13;;;;;;;10.75;6.45;;;;;;;4.06;29.04;102318.08;1756570;81;21020;-68
2022/03/17 09:15:40;;;;;;;13.88;6.92;;;;;;;4.25;28.29;102327.23;1755810;81;21124;-68
2022/03/17 09:18:09;;;;;;;13.35;6.25;;;;;;;3.90;28.40;102326.36;1756053;81;21691;-68
2022/03/17 09:20:38;;;;;;;14.83;5.92;;;;;;;3.76;28.80;102325.58;1726844;81;21096;-68
2022/03/17 09:23:04;;;;;;;16.00;6.60;;;;;;;3.81;28.74;102330.91;1756514;81;21095;-68
2022/03/17 09:25:33;;;;;;;12.13;5.83;;;;;;;3.71;28.82;102323.71;1756402;81;22028;-68
2022/03/17 09:28:01;;;;;;;12.80;6.25;;;;;;;3.43;29.31;102327.27;1756170;81;21133;-68
2022/03/17 09:30:28;;;;;;;12.37;6.20;;;;;;;3.00;29.74;102324.34;1761770;80;21068;-69
2022/03/17 09:32:58;;;;;;;11.18;5.72;;;;;;;2.69;30.48;102314.73;1787467;80;21001;-68
2022/03/17 09:35:25;;;;;;;13.65;5.37;;;;;;;2.48;30.79;102327.55;1787583;80;21032;-68
2022/03/17 09:37:55;;;;;;;9.40;5.10;;;;;;;2.41;31.39;102320.81;1787556;80;20997;-70
2022/03/17 09:40:21;;;;;;;11.97;6.10;;;;;;;2.41;31.07;102313.01;1788176;80;21109;-68
2022/03/17 09:43:18;;;;;;;12.43;6.67;;;;;;;2.54;31.12;102318.19;1787535;80;21024;-69
2022/03/17 09:45:18;;;;;;;14.80;6.70;;;;;;;2.84;30.93;102319.11;1771320;80;21048;-68
2022/03/17 09:47:45;;;;;;;14.18;6.72;;;;;;;3.53;30.44;102313.25;1773745;80;21076;-68
2022/03/17 09:50:14;;;;;;;14.15;6.72;;;;;;;3.83;30.30;102314.89;1752805;80;21049;-70
2022/03/17 09:52:44;;;;;;;10.05;6.60;;;;;;;4.09;29.57;102318.14;1743560;82;21033;-68
2022/03/17 09:55:11;;;;;;;12.78;5.85;;;;;;;4.19;28.95;102323.19;1743073;82;21068;-68
2022/03/17 09:57:40;;;;;;;11.18;5.55;;;;;;;4.06;29.19;102311.99;1742541;82;21029;-68
2022/03/17 10:00:11;;;;;;;9.73;6.50;;;;;;;4.11;29.45;102321.67;1742761;82;21090;-70
2022/03/17 10:02:39;;;;;;;11.43;6.10;;;;;;;3.96;29.41;102324.80;1742927;82;21049;-68
2022/03/17 10:05:11;;;;;;;9.10;5.72;;;;;;;3.77;30.09;102317.33;1742567;82;21885;-67
2022/03/17 10:07:37;;;;;;;10.00;5.53;;;;;;;3.68;29.92;102321.00;1722575;82;21052;-68
2022/03/17 10:10:06;;;;;;;14.38;6.37;;;;;;;3.62;29.33;102323.47;1742866;82;21087;-68
2022/03/17 10:12:34;;;;;;;10.20;5.15;;;;;;;3.90;29.79;102315.51;1743005;82;21033;-68
2022/03/17 10:15:01;;;;;;;8.70;4.90;;;;;;;4.28;29.16;102314.28;1722667;82;21096;-69
2022/03/17 10:17:36;;;;;;;9.03;4.85;;;;;;;4.44;29.41;102323.75;1742619;82;21100;-69
2022/03/17 10:20:16;;;;;;;8.23;4.37;;;;;;;4.41;28.54;102324.13;1742646;82;21041;-67
2022/03/17 10:22:54;;;;;;;;;;;;;;;4.31;28.24;102323.91;1745543;82;21103;-68
2022/03/17 10:25:26;;;;;;;16.55;8.83;;;;;;;4.38;28.06;102318.86;1742615;82;20487;-68
2022/03/17 10:27:55;;;;;;;15.28;7.42;;;;;;;4.41;27.96;102313.70;1742874;82;21638;-69
2022/03/17 10:30:32;;;;;;;19.05;9.35;;;;;;;4.67;27.78;102317.75;1742800;82;21542;-68
2022/03/17 10:33:04;;;;;;;19.73;10.35;;;;;;;4.93;27.42;102309.20;1742158;82;21028;-68
2022/03/17 10:35:36;;;;;;;21.15;9.38;;;;;;;5.26;27.28;102309.86;1742657;82;21346;-68
2022/03/17 10:38:14;;;;;;;15.78;8.58;;;;;;;5.63;26.64;102304.02;1743004;82;21013;-70
2022/03/17 10:40:42;;;;;;;14.80;7.83;;;;;;;5.58;26.98;102312.22;1742801;82;21028;-68
2022/03/17 10:43:22;;;;;;;16.90;8.58;;;;;;;5.32;27.19;102310.43;1742771;82;21504;-69
2022/03/17 10:46:19;;;;;;;25.37;12.82;;;;;;;5.32;27.50;102317.39;1749983;82;21010;-69
2022/03/17 10:49:00;;;;;;;17.65;8.98;;;;;;;5.10;27.31;102313.02;1750700;81;21044;-69
2022/03/17 10:51:41;;;;;;;15.08;9.15;;;;;;;5.28;27.23;102316.87;1750512;82;21501;-69
2022/03/17 10:54:11;;;;;;;15.75;8.93;;;;;;;5.61;27.15;102315.31;1750586;81;21068;-69
2022/03/17 10:56:39;;;;;;;16.12;7.83;;;;;;;5.70;26.67;102305.45;1750475;82;21882;-68
2022/03/17 10:59:11;;;;;;;15.20;9.63;;;;;;;5.74;26.58;102311.20;1750990;82;21064;-69
2022/03/17 11:01:42;;;;;;;15.70;8.68;;;;;;;5.85;26.32;102290.05;1749476;82;21044;-70
2022/03/17 11:04:11;;;;;;;17.50;9.00;;;;;;;6.06;26.56;102296.96;1750457;82;21093;-67
2022/03/17 11:06:39;;;;;;;14.05;6.28;;;;;;;6.19;26.17;102298.45;1750576;82;21032;-69
2022/03/17 11:09:08;;;;;;;12.60;6.65;;;;;;;6.07;25.86;102300.05;1750838;82;21317;-69
2022/03/17 11:11:39;;;;;;;11.12;6.58;;;;;;;6.00;26.47;102303.39;1750959;82;21044;-68
2022/03/17 11:14:08;;;;;;;12.63;5.67;;;;;;;5.98;26.66;102297.68;1751094;82;21033;-69
2022/03/17 11:16:40;;;;;;;17.73;7.10;;;;;;;5.97;26.23;102286.34;1750627;82;21092;-68
2022/03/17 11:19:09;;;;;;;12.40;6.58;;;;;;;5.96;26.48;102294.16;1750751;81;21052;-68
2022/03/17 11:21:36;;;;;;;11.85;6.65;;;;;;;5.93;26.54;102293.65;1750795;82;21809;-68
2022/03/17 11:24:07;;;;;;;10.65;6.20;;;;;;;6.13;26.04;102287.91;1750374;82;21087;-69
2022/03/17 11:26:41;;;;;;;10.85;6.15;;;;;;;5.89;26.02;102298.40;1750440;82;21095;-69
2022/03/17 11:29:10;;;;;;;12.95;6.47;;;;;;;5.60;26.48;102307.91;1750111;82;21504;-69
2022/03/17 11:31:54;;;;;;;10.63;6.12;;;;;;;5.45;27.30;102290.62;1750822;82;21064;-68
2022/03/17 11:34:47;;;;;;;19.10;9.85;;;;;;;5.34;27.28;102297.41;1749106;82;21074;-68
2022/03/17 11:37:24;;;;;;;16.62;8.93;;;;;;;5.25;27.51;102303.33;1750824;82;21095;-68
2022/03/17 11:39:54;;;;;;;13.55;7.20;;;;;;;5.45;27.74;102293.23;1750606;82;21036;-69
2022/03/17 11:42:41;;;;;;;12.15;7.45;;;;;;;5.93;27.15;102288.42;1750584;82;21551;-68
2022/03/17 11:45:16;;;;;;;16.45;8.08;;;;;;;6.33;26.89;102285.17;1750313;82;21052;-69